Time;durP1;ratioP1;P1;durP2;ratioP2;P2;SDS_P1;SDS_P2;PMS_P1;PMS_P2;Temp;Humidity;BMP_temperature;BMP_pressure;BME280_temperature;BME280_humidity;BME280_pressure;Samples;Min_cycle;Max_cycle;Signal;HPM_P1;HPM_P2
2023/12/06 00:02:03;;;;;;;10.07;2.47;;;32.00;54.60;;;;;;5053016;28;20041;-70
2023/12/06 00:04:31;;;;;;;11.93;1.90;;;32.30;53.80;;;;;;5052850;28;20021;-71
2023/12/06 00:06:58;;;;;;;11.57;2.13;;;32.30;52.60;;;;;;5058892;28;20135;-70
2023/12/06 00:09:26;;;;;;;8.45;1.95;;;32.40;53.80;;;;;;5054199;28;20032;-70
2023/12/06 00:11:53;;;;;;;15.73;2.22;;;32.70;53.60;;;;;;5053958;28;20025;-71
2023/12/06 00:14:20;;;;;;;11.45;2.75;;;33.00;53.80;;;;;;5051805;28;20021;-71
2023/12/06 00:16:48;;;;;;;12.18;2.72;;;32.90;54.50;;;;;;5054362;28;20557;-71
2023/12/06 00:19:15;;;;;;;21.17;3.35;;;32.40;55.90;;;;;;5051783;28;20013;-72
2023/12/06 00:21:42;;;;;;;14.32;3.25;;;32.50;57.40;;;;;;5055777;28;20040;-72
2023/12/06 00:24:10;;;;;;;13.13;2.20;;;32.50;55.70;;;;;;5056114;28;20091;-71
2023/12/06 00:26:39;;;;;;;13.48;2.88;;;32.50;54.90;;;;;;5055037;28;20025;-71
2023/12/06 00:29:07;;;;;;;14.00;2.50;;;32.30;54.50;;;;;;5056686;28;20466;-71
2023/12/06 00:31:34;;;;;;;12.13;2.17;;;32.50;54.10;;;;;;5060604;28;20027;-71
2023/12/06 00:34:01;;;;;;;13.93;2.40;;;32.60;53.90;;;;;;5051960;28;20114;-71
2023/12/06 00:36:29;;;;;;;12.63;2.47;;;32.50;55.30;;;;;;5049161;28;20025;-71
2023/12/06 00:38:56;;;;;;;14.70;2.38;;;32.60;54.70;;;;;;5052104;28;20029;-70
2023/12/06 00:41:24;;;;;;;11.35;2.78;;;32.50;54.40;;;;;;5051486;28;20048;-70
2023/12/06 00:43:53;;;;;;;15.82;2.55;;;32.70;55.40;;;;;;5056457;28;20082;-70
2023/12/06 00:46:21;;;;;;;17.00;2.65;;;32.70;55.10;;;;;;5055517;28;20118;-71
2023/12/06 00:48:48;;;;;;;14.82;2.45;;;32.80;54.90;;;;;;5055598;28;20113;-72
2023/12/06 00:51:15;;;;;;;10.00;2.28;;;32.80;53.20;;;;;;5051583;28;20388;-72
2023/12/06 00:53:43;;;;;;;11.68;2.22;;;32.60;52.90;;;;;;5052719;28;20100;-71
2023/12/06 00:56:16;;;;;;;11.70;2.42;;;33.00;54.40;;;;;;5052660;28;20035;-71
2023/12/06 00:58:44;;;;;;;17.95;2.85;;;33.30;54.10;;;;;;5053683;28;20045;-71
2023/12/06 01:01:13;;;;;;;11.45;2.50;;;33.40;55.70;;;;;;5049765;28;20323;-71
2023/12/06 01:03:41;;;;;;;13.30;2.67;;;33.60;55.20;;;;;;5055421;28;20029;-71
2023/12/06 01:06:09;;;;;;;13.35;2.65;;;33.60;54.50;;;;;;5052907;28;20047;-72
2023/12/06 01:08:36;;;;;;;15.48;2.55;;;33.10;53.90;;;;;;5046678;28;20040;-72
2023/12/06 01:11:04;;;;;;;13.10;2.22;;;33.30;54.30;;;;;;5051530;28;20118;-71
2023/12/06 01:13:31;;;;;;;7.95;2.42;;;33.30;53.50;;;;;;5048854;28;20016;-71
2023/12/06 01:15:59;;;;;;;14.18;2.33;;;33.20;53.80;;;;;;5047342;28;20135;-71
2023/12/06 01:18:26;;;;;;;12.18;2.72;;;33.30;54.50;;;;;;5051295;28;20032;-71
2023/12/06 01:20:54;;;;;;;15.45;2.90;;;32.90;53.50;;;;;;5047245;28;20033;-71
2023/12/06 01:23:21;;;;;;;16.20;4.00;;;33.10;54.80;;;;;;5050340;28;20025;-71
2023/12/06 01:25:48;;;;;;;12.50;2.90;;;33.30;53.50;;;;;;5045760;28;20070;-72
2023/12/06 01:28:16;;;;;;;10.43;2.42;;;33.60;53.30;;;;;;5042566;28;20367;-72
2023/12/06 01:30:43;;;;;;;15.68;2.53;;;33.60;51.70;;;;;;5050050;28;20017;-71
2023/12/06 01:33:10;;;;;;;14.07;3.25;;;33.40;52.50;;;;;;5056184;28;20032;-71
2023/12/06 01:35:38;;;;;;;12.25;3.67;;;33.20;52.80;;;;;;5047216;28;20036;-71
2023/12/06 01:38:05;;;;;;;12.40;2.95;;;33.40;53.00;;;;;;5057558;28;20071;-72
2023/12/06 01:40:39;;;;;;;20.50;4.05;;;33.60;54.20;;;;;;5047412;28;20037;-72
2023/12/06 01:43:08;;;;;;;13.23;3.17;;;33.60;55.90;;;;;;5051298;28;20596;-72
2023/12/06 01:45:36;;;;;;;12.90;2.67;;;33.40;55.40;;;;;;5045797;28;20021;-72
2023/12/06 01:48:04;;;;;;;18.38;3.55;;;33.10;55.80;;;;;;5051497;28;20072;-72
2023/12/06 01:50:33;;;;;;;19.98;3.80;;;33.20;56.30;;;;;;5053479;28;20025;-72
2023/12/06 01:53:04;;;;;;;15.75;4.13;;;33.10;55.70;;;;;;5045391;28;20025;-73
2023/12/06 01:55:32;;;;;;;17.70;3.85;;;33.10;56.10;;;;;;5048702;28;20030;-73
2023/12/06 01:58:00;;;;;;;17.90;3.72;;;33.30;56.50;;;;;;5051686;28;20525;-72
2023/12/06 02:00:28;;;;;;;16.95;3.83;;;33.30;55.10;;;;;;5049542;28;20585;-73
2023/12/06 02:02:56;;;;;;;16.00;3.35;;;33.30;56.40;;;;;;5055808;28;20128;-74
2023/12/06 02:05:24;;;;;;;13.98;3.20;;;33.00;55.70;;;;;;5056764;28;20029;-73
2023/12/06 02:07:52;;;;;;;18.88;4.35;;;32.90;55.60;;;;;;5055308;28;20029;-72
2023/12/06 02:10:20;;;;;;;22.38;3.75;;;32.80;56.70;;;;;;5052812;28;20031;-74
2023/12/06 02:12:50;;;;;;;15.73;3.45;;;32.90;56.00;;;;;;5056644;28;20022;-73
2023/12/06 02:15:18;;;;;;;18.88;3.67;;;32.70;55.80;;;;;;5049099;28;20037;-72
2023/12/06 02:17:46;;;;;;;18.80;3.58;;;32.70;55.80;;;;;;5049211;28;20263;-72
2023/12/06 02:20:13;;;;;;;12.98;2.90;;;33.10;55.60;;;;;;5055197;28;20071;-72
2023/12/06 02:22:41;;;;;;;13.75;3.40;;;33.60;55.70;;;;;;5049278;28;20040;-71
2023/12/06 02:25:16;;;;;;;11.32;3.10;;;33.70;55.00;;;;;;5049095;28;20033;-72
2023/12/06 02:27:45;;;;;;;16.17;3.28;;;33.00;53.90;;;;;;5047960;28;20032;-71
2023/12/06 02:30:14;;;;;;;13.52;3.13;;;33.10;55.40;;;;;;5050947;28;20123;-71
2023/12/06 02:32:41;;;;;;;10.38;2.88;;;33.00;54.00;;;;;;5042923;28;20028;-72
2023/12/06 02:35:52;;;;;;;11.90;3.05;;;33.10;55.90;;;;;;5055405;28;20025;-73
2023/12/06 02:38:21;;;;;;;13.40;3.58;;;33.30;53.40;;;;;;5040154;28;20084;-72
2023/12/06 02:40:51;;;;;;;11.00;2.80;;;33.20;54.20;;;;;;5045910;28;20029;-73
2023/12/06 02:43:20;;;;;;;14.07;3.22;;;33.00;54.60;;;;;;5048904;28;20060;-72
2023/12/06 02:45:47;;;;;;;14.40;3.33;;;33.10;53.30;;;;;;5046003;28;20029;-72
2023/12/06 02:48:18;;;;;;;17.90;3.83;;;33.50;54.10;;;;;;5043091;28;20040;-72
2023/12/06 02:50:45;;;;;;;19.83;4.13;;;33.50;54.10;;;;;;5036186;28;20029;-73
2023/12/06 02:53:13;;;;;;;19.30;4.53;;;33.30;53.20;;;;;;5038216;28;20037;-72
2023/12/06 02:55:41;;;;;;;27.85;4.53;;;33.20;54.30;;;;;;5041621;28;20029;-72
2023/12/06 02:58:13;;;;;;;13.65;3.47;;;33.20;54.20;;;;;;5041538;28;20038;-72
2023/12/06 03:00:40;;;;;;;17.95;4.47;;;33.20;53.60;;;;;;5048139;28;20025;-73
2023/12/06 03:03:08;;;;;;;19.75;3.50;;;33.20;55.20;;;;;;5045422;28;20102;-72
2023/12/06 03:05:36;;;;;;;15.43;3.70;;;33.30;54.50;;;;;;5042516;28;20033;-71
2023/12/06 03:08:04;;;;;;;16.27;5.25;;;33.10;55.10;;;;;;5041800;28;20057;-72
2023/12/06 03:10:31;;;;;;;18.38;4.63;;;33.20;54.80;;;;;;5045848;28;20037;-72
2023/12/06 03:12:59;;;;;;;21.63;5.13;;;32.80;53.80;;;;;;5044099;28;20033;-72
2023/12/06 03:15:26;;;;;;;16.85;6.00;;;32.60;54.80;;;;;;5049742;28;20086;-73
2023/12/06 03:17:54;;;;;;;21.75;7.18;;;32.60;55.70;;;;;;5048399;28;20036;-72
2023/12/06 03:20:21;;;;;;;20.85;7.18;;;32.80;56.60;;;;;;5046391;28;20037;-72
2023/12/06 03:22:49;;;;;;;23.77;7.13;;;32.70;55.90;;;;;;5035866;28;20091;-73
2023/12/06 03:25:18;;;;;;;15.70;5.53;;;32.70;54.70;;;;;;5031381;28;20128;-72
2023/12/06 03:27:45;;;;;;;16.70;6.05;;;32.60;54.20;;;;;;5038451;28;20063;-72
2023/12/06 03:30:13;;;;;;;22.45;5.05;;;32.30;55.70;;;;;;5040534;28;20028;-72
2023/12/06 03:32:44;;;;;;;18.40;5.45;;;32.20;55.20;;;;;;5039712;28;20502;-71
2023/12/06 03:35:11;;;;;;;14.20;4.85;;;31.90;55.40;;;;;;5036587;28;20055;-71
2023/12/06 03:37:39;;;;;;;22.70;5.55;;;32.10;56.00;;;;;;5049191;28;20029;-71
2023/12/06 03:40:07;;;;;;;16.17;4.82;;;32.10;55.20;;;;;;5045161;28;20037;-73
2023/12/06 03:42:34;;;;;;;18.15;4.78;;;32.30;55.10;;;;;;5051429;28;20120;-71
2023/12/06 03:45:01;;;;;;;13.85;4.25;;;32.00;54.80;;;;;;5059480;28;20401;-72
2023/12/06 03:47:32;;;;;;;13.90;4.93;;;31.80;55.60;;;;;;5057969;28;20033;-72
2023/12/06 03:49:59;;;;;;;20.42;5.30;;;31.50;57.20;;;;;;5056904;28;20032;-71
2023/12/06 03:52:26;;;;;;;13.77;3.60;;;31.60;56.30;;;;;;5052399;28;20025;-73
2023/12/06 03:54:54;;;;;;;23.75;3.40;;;31.40;56.60;;;;;;5063808;28;20052;-72
2023/12/06 03:57:21;;;;;;;24.10;4.28;;;31.20;56.60;;;;;;5052255;28;20033;-73
2023/12/06 03:59:48;;;;;;;12.73;3.15;;;31.10;57.20;;;;;;5055730;28;20040;-73
2023/12/06 04:02:17;;;;;;;13.55;3.05;;;31.40;57.50;;;;;;5068932;28;20434;-73
2023/12/06 04:04:45;;;;;;;17.95;3.22;;;31.60;59.40;;;;;;5052922;28;20029;-72
2023/12/06 04:07:12;;;;;;;15.27;3.38;;;31.80;59.80;;;;;;5055110;28;20033;-71
2023/12/06 04:09:40;;;;;;;15.68;3.38;;;31.80;58.70;;;;;;5046426;28;20124;-72
2023/12/06 04:12:08;;;;;;;15.90;3.13;;;31.90;57.50;;;;;;5051817;28;20504;-72
2023/12/06 04:14:35;;;;;;;14.15;3.20;;;31.40;58.40;;;;;;5053077;28;20017;-71
2023/12/06 04:17:03;;;;;;;13.48;2.97;;;31.40;57.90;;;;;;5051435;28;20029;-71
2023/12/06 04:19:30;;;;;;;13.95;3.20;;;31.60;58.30;;;;;;5050042;28;20308;-70
2023/12/06 04:21:57;;;;;;;9.75;3.30;;;31.40;56.10;;;;;;5052424;28;20041;-74
2023/12/06 04:24:25;;;;;;;15.38;3.72;;;31.40;56.90;;;;;;5045958;28;20063;-70
2023/12/06 04:26:52;;;;;;;15.25;3.10;;;30.90;56.80;;;;;;5048562;28;20389;-71
2023/12/06 04:29:20;;;;;;;14.90;3.35;;;30.40;57.10;;;;;;5043788;28;20069;-70
2023/12/06 04:31:47;;;;;;;16.25;3.95;;;30.00;57.50;;;;;;5049727;28;20052;-71
2023/12/06 04:34:14;;;;;;;14.60;2.80;;;29.60;58.10;;;;;;5050814;28;20053;-71
2023/12/06 04:36:42;;;;;;;16.05;2.85;;;29.40;58.40;;;;;;5048332;28;20040;-71
2023/12/06 04:39:09;;;;;;;12.73;2.50;;;29.10;59.00;;;;;;5049361;28;20064;-71
2023/12/06 04:41:36;;;;;;;16.63;2.67;;;29.00;60.00;;;;;;5050394;28;20089;-71
2023/12/06 04:44:07;;;;;;;15.80;3.22;;;29.00;60.60;;;;;;5049101;28;20528;-71
2023/12/06 04:46:34;;;;;;;20.90;3.70;;;28.80;60.30;;;;;;5063249;28;20079;-71
2023/12/06 04:49:02;;;;;;;47.65;9.07;;;28.90;60.20;;;;;;5049556;28;20035;-72
2023/12/06 04:51:29;;;;;;;32.83;6.93;;;28.70;60.70;;;;;;5043424;28;20056;-70
2023/12/06 04:53:56;;;;;;;31.58;6.55;;;28.70;60.60;;;;;;5047079;28;20128;-72
2023/12/06 04:56:24;;;;;;;30.13;5.13;;;28.60;60.70;;;;;;5057309;28;20088;-73
2023/12/06 04:58:51;;;;;;;12.98;2.83;;;28.60;60.70;;;;;;5047166;28;20742;-73
2023/12/06 05:01:18;;;;;;;17.38;3.45;;;28.70;61.20;;;;;;5053957;28;20040;-73
2023/12/06 05:03:46;;;;;;;17.70;3.78;;;28.70;61.50;;;;;;5054966;28;20055;-73
2023/12/06 05:06:13;;;;;;;18.13;3.28;;;28.50;61.50;;;;;;5047331;28;20041;-73
2023/12/06 05:08:40;;;;;;;12.98;2.90;;;28.50;61.50;;;;;;5057216;28;20466;-73
2023/12/06 05:11:08;;;;;;;17.45;2.85;;;28.50;61.60;;;;;;5050572;28;20036;-73
2023/12/06 05:13:35;;;;;;;15.50;2.15;;;28.40;61.70;;;;;;5051452;28;20036;-73
2023/12/06 05:16:03;;;;;;;15.85;2.78;;;28.40;61.80;;;;;;5054626;28;20025;-72
2023/12/06 05:18:31;;;;;;;14.20;2.90;;;28.20;62.40;;;;;;5051766;28;20067;-73
2023/12/06 05:20:58;;;;;;;14.70;2.65;;;28.30;62.60;;;;;;5045120;28;20044;-73
2023/12/06 05:23:25;;;;;;;21.35;3.08;;;28.30;62.80;;;;;;5053255;28;20028;-73
2023/12/06 05:25:53;;;;;;;13.40;2.92;;;28.50;62.80;;;;;;5055476;28;20087;-73
2023/12/06 05:28:20;;;;;;;17.85;2.47;;;28.80;62.70;;;;;;5053721;28;20059;-73
2023/12/06 05:30:47;;;;;;;18.48;3.00;;;29.30;62.90;;;;;;5055795;28;20133;-73
2023/12/06 05:33:15;;;;;;;16.38;3.05;;;29.40;62.10;;;;;;5056276;28;20021;-73
2023/12/06 05:35:42;;;;;;;16.33;2.80;;;29.40;61.30;;;;;;5051877;28;20477;-74
2023/12/06 05:38:10;;;;;;;19.80;3.20;;;29.40;62.00;;;;;;5051930;28;20021;-72
2023/12/06 05:40:37;;;;;;;10.85;2.35;;;29.30;61.90;;;;;;5054928;28;20078;-72
2023/12/06 05:43:04;;;;;;;17.15;2.70;;;29.30;61.70;;;;;;5051051;28;20037;-72
2023/12/06 05:45:32;;;;;;;16.48;2.83;;;29.30;61.90;;;;;;5047883;28;20020;-72
2023/12/06 05:47:59;;;;;;;13.10;2.75;;;29.10;61.90;;;;;;5052969;28;20143;-72
2023/12/06 05:50:26;;;;;;;15.75;2.85;;;28.80;62.80;;;;;;5049173;28;20493;-73
2023/12/06 05:52:54;;;;;;;15.40;2.83;;;28.60;63.60;;;;;;5049620;28;20037;-72
2023/12/06 05:55:22;;;;;;;13.18;2.53;;;28.50;63.80;;;;;;5047947;28;20045;-73
2023/12/06 05:57:49;;;;;;;19.67;2.65;;;28.20;65.10;;;;;;5041092;28;20132;-73
2023/12/06 06:00:17;;;;;;;14.40;3.22;;;28.10;64.80;;;;;;5045792;28;20047;-73
2023/12/06 06:02:45;;;;;;;20.83;3.00;;;28.00;65.00;;;;;;5046634;28;20513;-72
2023/12/06 06:05:12;;;;;;;20.10;4.20;;;28.10;65.30;;;;;;5049170;28;20397;-72
2023/12/06 06:07:40;;;;;;;17.63;3.00;;;28.30;65.00;;;;;;5047383;28;20039;-72
2023/12/06 06:10:08;;;;;;;12.50;2.95;;;28.10;65.30;;;;;;5050529;28;22254;-72
2023/12/06 06:12:35;;;;;;;14.25;3.05;;;28.10;65.60;;;;;;5044703;28;20032;-72
2023/12/06 06:15:03;;;;;;;13.75;2.60;;;28.10;65.30;;;;;;5050169;28;20039;-72
2023/12/06 06:17:30;;;;;;;14.15;2.50;;;28.00;65.20;;;;;;5053992;28;20028;-72
2023/12/06 06:19:57;;;;;;;20.00;3.00;;;28.10;65.60;;;;;;5052220;28;20187;-72
2023/12/06 06:22:25;;;;;;;17.05;2.55;;;27.90;66.00;;;;;;5058991;28;20060;-73
2023/12/06 06:24:52;;;;;;;22.88;3.35;;;27.80;66.60;;;;;;5051962;28;20451;-73
2023/12/06 06:27:19;;;;;;;22.75;3.17;;;27.70;67.00;;;;;;5056195;28;20021;-73
2023/12/06 06:29:47;;;;;;;16.92;3.08;;;27.90;67.30;;;;;;5054139;28;20032;-73
2023/12/06 06:32:14;;;;;;;18.67;2.90;;;28.10;67.70;;;;;;5050001;28;20116;-73
2023/12/06 06:34:42;;;;;;;16.27;2.78;;;28.00;67.40;;;;;;5050185;28;20028;-72
2023/12/06 06:37:10;;;;;;;16.45;2.58;;;28.00;66.70;;;;;;5057102;28;20031;-72
2023/12/06 06:39:38;;;;;;;19.88;2.85;;;27.80;67.00;;;;;;5054612;28;20036;-71
2023/12/06 06:42:06;;;;;;;15.73;2.97;;;27.70;68.10;;;;;;5052623;28;20033;-72
2023/12/06 06:44:39;;;;;;;19.63;3.42;;;27.40;68.50;;;;;;5053383;28;20021;-72
2023/12/06 06:47:08;;;;;;;12.10;2.47;;;27.50;69.20;;;;;;5048583;28;20908;-72
2023/12/06 06:49:39;;;;;;;19.15;2.78;;;27.80;68.90;;;;;;5050940;28;21686;-72
2023/12/06 06:52:06;;;;;;;14.35;2.75;;;27.80;67.80;;;;;;5050089;28;20021;-72
2023/12/06 06:54:34;;;;;;;14.75;2.70;;;27.50;68.30;;;;;;5056013;28;20029;-73
2023/12/06 06:57:01;;;;;;;13.32;3.40;;;27.40;68.70;;;;;;5052222;28;20567;-72
2023/12/06 06:59:28;;;;;;;12.07;2.60;;;27.40;69.10;;;;;;5052878;28;20048;-72
2023/12/06 07:01:59;;;;;;;12.25;2.83;;;27.40;69.70;;;;;;5052302;28;20048;-72
2023/12/06 07:04:26;;;;;;;16.92;2.90;;;27.40;69.60;;;;;;5050318;28;20033;-73
2023/12/06 07:06:54;;;;;;;16.77;2.95;;;27.30;69.70;;;;;;5052901;28;20119;-72
2023/12/06 07:09:21;;;;;;;18.38;2.63;;;27.30;70.30;;;;;;5048130;28;20457;-72
2023/12/06 07:11:48;;;;;;;19.08;3.05;;;27.40;69.90;;;;;;5046575;28;20071;-72
2023/12/06 07:14:16;;;;;;;12.38;2.55;;;27.50;69.80;;;;;;5052074;28;20029;-72
2023/12/06 07:16:45;;;;;;;19.15;2.75;;;27.70;69.80;;;;;;5048255;28;20045;-71
2023/12/06 07:19:12;;;;;;;13.82;2.78;;;27.70;69.80;;;;;;5052119;28;20029;-72
2023/12/06 07:21:40;;;;;;;17.83;2.85;;;27.60;69.80;;;;;;5048487;28;20076;-71
2023/12/06 07:24:07;;;;;;;14.60;2.75;;;27.60;70.00;;;;;;5045595;28;20492;-72
2023/12/06 07:26:36;;;;;;;15.48;3.30;;;27.50;70.80;;;;;;5047667;28;20021;-72
2023/12/06 07:29:03;;;;;;;18.73;3.45;;;27.30;71.70;;;;;;5046191;28;20390;-72
2023/12/06 07:31:30;;;;;;;20.73;3.17;;;27.10;72.00;;;;;;5044663;28;20024;-72
2023/12/06 07:33:58;;;;;;;17.55;3.28;;;27.00;72.10;;;;;;5045960;28;20094;-71
2023/12/06 07:36:25;;;;;;;15.02;2.92;;;26.90;73.00;;;;;;5038852;28;20534;-71
2023/12/06 07:38:56;;;;;;;23.38;3.47;;;26.90;73.20;;;;;;5041530;28;20088;-72
2023/12/06 07:41:23;;;;;;;13.20;3.53;;;26.80;73.50;;;;;;5046437;28;20021;-72
2023/12/06 07:43:51;;;;;;;19.98;3.10;;;26.80;74.10;;;;;;5039231;28;20037;-71
2023/12/06 07:46:18;;;;;;;17.33;2.75;;;26.70;74.30;;;;;;5045758;28;20018;-72
2023/12/06 07:48:46;;;;;;;15.18;2.55;;;26.70;74.30;;;;;;5042417;28;20417;-71
2023/12/06 07:51:13;;;;;;;17.30;3.03;;;26.70;74.90;;;;;;5041202;28;20484;-71
2023/12/06 07:53:41;;;;;;;16.10;2.55;;;26.70;75.10;;;;;;5047586;28;20056;-71
2023/12/06 07:56:09;;;;;;;19.95;3.33;;;26.90;75.70;;;;;;5042360;28;20033;-71
2023/12/06 07:58:36;;;;;;;17.85;3.15;;;26.80;75.70;;;;;;5045417;28;20067;-72
2023/12/06 08:01:04;;;;;;;17.85;3.72;;;26.60;76.60;;;;;;5047380;28;20038;-72
2023/12/06 08:03:31;;;;;;;24.17;3.42;;;26.40;77.20;;;;;;5051848;28;20401;-72
2023/12/06 08:06:01;;;;;;;20.35;3.00;;;26.20;78.50;;;;;;5045561;28;20057;-72
2023/12/06 08:08:29;;;;;;;12.75;2.60;;;26.00;79.20;;;;;;5045943;28;20112;-72
2023/12/06 08:10:57;;;;;;;16.67;3.33;;;25.90;79.50;;;;;;5048849;28;20109;-72
2023/12/06 08:13:25;;;;;;;20.80;3.83;;;25.90;80.30;;;;;;5053757;28;20028;-72
2023/12/06 08:15:53;;;;;;;17.73;3.08;;;25.80;80.90;;;;;;5052081;28;20029;-72
2023/12/06 08:18:20;;;;;;;21.10;4.45;;;25.60;82.10;;;;;;5051515;28;20021;-72
2023/12/06 08:20:47;;;;;;;19.80;3.65;;;25.60;82.40;;;;;;5052063;28;20027;-72
2023/12/06 08:23:15;;;;;;;14.77;2.80;;;25.60;82.50;;;;;;5057374;28;20033;-72
2023/12/06 08:25:42;;;;;;;21.90;3.00;;;25.60;82.90;;;;;;5053286;28;20055;-72
2023/12/06 08:28:12;;;;;;;18.33;4.63;;;25.50;83.60;;;;;;5053519;28;20033;-72
2023/12/06 08:30:40;;;;;;;29.35;4.43;;;25.40;84.00;;;;;;5058518;28;20028;-72
2023/12/06 08:33:07;;;;;;;26.63;4.07;;;25.30;85.10;;;;;;5056147;28;20072;-72
2023/12/06 08:35:35;;;;;;;21.80;4.03;;;25.30;85.40;;;;;;5050397;28;20078;-71
2023/12/06 08:38:03;;;;;;;22.73;2.88;;;25.30;85.70;;;;;;5057594;28;20075;-72
2023/12/06 08:40:30;;;;;;;19.83;3.65;;;25.20;86.50;;;;;;5050319;28;20028;-71
2023/12/06 08:42:57;;;;;;;20.55;3.80;;;25.10;87.10;;;;;;5059035;28;20506;-71
2023/12/06 08:45:25;;;;;;;19.73;3.75;;;25.00;87.20;;;;;;5056121;28;20380;-71
2023/12/06 08:47:52;;;;;;;19.08;3.47;;;25.10;87.70;;;;;;5047791;28;20486;-72
2023/12/06 08:50:20;;;;;;;27.27;4.57;;;25.10;88.00;;;;;;5056847;28;20052;-72
2023/12/06 08:52:48;;;;;;;23.00;4.30;;;25.10;88.50;;;;;;5058139;28;20021;-72
2023/12/06 08:55:16;;;;;;;20.58;3.65;;;25.00;88.40;;;;;;5051839;28;20843;-72
2023/12/06 08:57:44;;;;;;;20.02;3.40;;;25.00;89.00;;;;;;5053197;28;20028;-72
2023/12/06 09:00:12;;;;;;;26.92;3.42;;;24.90;89.30;;;;;;5054971;28;20409;-72
2023/12/06 09:02:43;;;;;;;19.38;4.30;;;24.90;89.90;;;;;;5046472;28;20095;-72
2023/12/06 09:05:11;;;;;;;20.50;3.67;;;24.60;90.40;;;;;;5049307;28;20107;-71
2023/12/06 09:07:39;;;;;;;19.45;3.38;;;24.60;90.60;;;;;;5043102;28;20025;-71
2023/12/06 09:10:10;;;;;;;19.20;3.67;;;24.60;90.60;;;;;;5048437;28;20075;-73
2023/12/06 09:12:38;;;;;;;21.77;3.50;;;24.60;90.70;;;;;;5057415;28;20509;-72
2023/12/06 09:15:06;;;;;;;30.02;4.43;;;24.50;90.90;;;;;;5050932;28;20033;-72
2023/12/06 09:17:34;;;;;;;19.98;3.33;;;24.40;91.00;;;;;;5051136;28;20028;-72
2023/12/06 09:20:02;;;;;;;16.58;3.05;;;24.50;91.30;;;;;;5048661;28;20033;-72
2023/12/06 09:22:30;;;;;;;19.98;4.43;;;24.40;91.40;;;;;;5043452;28;20041;-73
2023/12/06 09:24:57;;;;;;;15.05;3.28;;;24.30;91.50;;;;;;5045288;28;20024;-72
2023/12/06 09:27:24;;;;;;;17.17;3.30;;;24.30;91.50;;;;;;5045867;28;20078;-72
2023/12/06 09:29:55;;;;;;;21.98;3.10;;;24.30;91.60;;;;;;5047225;28;20029;-74
2023/12/06 09:32:25;;;;;;;22.15;3.33;;;24.30;91.60;;;;;;5051402;28;20078;-72
2023/12/06 09:34:53;;;;;;;21.85;3.60;;;24.30;91.80;;;;;;5057385;28;20036;-72
2023/12/06 09:37:20;;;;;;;23.95;3.97;;;24.20;91.90;;;;;;5060625;28;20393;-73
2023/12/06 09:39:47;;;;;;;25.58;4.78;;;24.10;92.20;;;;;;5051377;28;20029;-72
2023/12/06 09:42:16;;;;;;;19.48;4.13;;;24.10;92.10;;;;;;5060783;28;20037;-72
2023/12/06 09:44:43;;;;;;;21.80;3.67;;;24.10;92.30;;;;;;5054719;28;20549;-72
2023/12/06 09:47:12;;;;;;;19.13;4.55;;;24.00;92.40;;;;;;5058435;28;20036;-72
2023/12/06 09:49:39;;;;;;;26.55;4.43;;;23.90;92.40;;;;;;5051164;28;20116;-73
2023/12/06 09:52:27;;;;;;;18.73;4.05;;;23.90;92.50;;;;;;5062596;28;20028;-72
2023/12/06 09:54:55;;;;;;;20.08;3.78;;;23.90;92.40;;;;;;5049211;28;20036;-72
2023/12/06 09:57:26;;;;;;;21.70;3.30;;;23.90;92.50;;;;;;5057625;28;20079;-72
2023/12/06 09:59:53;;;;;;;17.65;3.63;;;23.90;92.40;;;;;;5057412;28;20421;-72
2023/12/06 10:02:23;;;;;;;23.33;3.88;;;23.90;92.70;;;;;;5053685;28;20045;-73
2023/12/06 10:04:51;;;;;;;16.50;3.72;;;23.80;92.70;;;;;;5058791;28;20030;-72
2023/12/06 10:07:20;;;;;;;18.20;4.10;;;23.70;92.80;;;;;;5054731;28;20115;-72
2023/12/06 10:09:57;;;;;;;20.27;4.22;;;23.80;92.90;;;;;;5049787;28;20493;-73
2023/12/06 10:12:27;;;;;;;21.83;3.55;;;23.60;93.00;;;;;;5052081;28;20057;-72
2023/12/06 10:14:59;;;;;;;17.40;3.15;;;23.50;93.20;;;;;;5063524;28;20083;-72
2023/12/06 10:17:33;;;;;;;22.95;4.18;;;23.50;93.20;;;;;;5051122;28;20138;-71
2023/12/06 10:20:07;;;;;;;19.77;3.35;;;23.40;93.40;;;;;;5057128;28;20078;-73
2023/12/06 10:22:35;;;;;;;21.02;3.38;;;23.50;93.40;;;;;;5051259;28;20041;-71
2023/12/06 10:25:06;;;;;;;24.45;4.03;;;23.50;93.30;;;;;;5050692;28;20025;-71
2023/12/06 10:27:34;;;;;;;19.58;4.00;;;23.50;93.50;;;;;;5054863;28;20489;-74
2023/12/06 10:30:06;;;;;;;18.92;3.70;;;23.30;93.70;;;;;;5060851;28;20047;-74
2023/12/06 10:32:37;;;;;;;28.17;4.20;;;23.30;93.90;;;;;;5052717;28;20346;-72
2023/12/06 10:35:12;;;;;;;16.67;3.55;;;23.10;94.20;;;;;;5058381;28;20029;-72
2023/12/06 10:37:42;;;;;;;19.67;3.90;;;23.10;94.30;;;;;;5050213;28;20465;-72
2023/12/06 10:40:10;;;;;;;21.42;4.07;;;23.30;94.10;;;;;;5052553;28;20021;-73
2023/12/06 10:42:51;;;;;;;27.48;4.78;;;23.30;94.20;;;;;;5052616;28;20037;-72
2023/12/06 10:45:19;;;;;;;26.40;4.80;;;23.30;94.20;;;;;;5046293;28;20082;-73
2023/12/06 10:47:53;;;;;;;17.83;3.97;;;23.30;94.20;;;;;;5051913;28;20031;-73
2023/12/06 10:50:25;;;;;;;19.88;4.30;;;23.30;94.30;;;;;;5050004;28;20063;-73
2023/12/06 10:52:58;;;;;;;25.45;3.70;;;23.30;94.50;;;;;;5045651;28;20104;-73
2023/12/06 10:55:31;;;;;;;24.63;3.75;;;23.20;94.60;;;;;;5054446;28;20078;-73
2023/12/06 10:58:00;;;;;;;15.80;3.55;;;23.00;94.70;;;;;;5041305;28;20036;-73
2023/12/06 11:00:28;;;;;;;23.08;4.00;;;23.10;94.70;;;;;;5046025;28;20040;-73
2023/12/06 11:02:56;;;;;;;15.20;3.70;;;23.10;94.70;;;;;;5047509;28;20075;-73
2023/12/06 11:05:26;;;;;;;17.85;3.38;;;23.10;94.50;;;;;;5041123;28;20026;-74
2023/12/06 11:08:18;;;;;;;21.13;4.22;;;23.00;94.50;;;;;;5048547;28;20043;-73
2023/12/06 11:11:12;;;;;;;21.10;3.38;;;23.00;94.60;;;;;;5050265;28;20758;-73
2023/12/06 11:14:03;;;;;;;17.98;3.58;;;23.00;94.60;;;;;;5048507;28;20460;-72
2023/12/06 11:16:47;;;;;;;22.90;3.55;;;22.90;94.50;;;;;;5050228;28;20020;-72
2023/12/06 11:19:22;;;;;;;16.15;3.55;;;22.90;94.60;;;;;;5052381;28;20036;-73
2023/12/06 11:21:49;;;;;;;14.32;2.88;;;22.90;94.50;;;;;;5053813;28;20050;-73
2023/12/06 11:24:17;;;;;;;23.20;4.28;;;22.90;94.50;;;;;;5054349;28;20031;-73
2023/12/06 11:26:44;;;;;;;23.48;3.10;;;22.70;94.80;;;;;;5053374;28;20091;-73
2023/12/06 11:29:13;;;;;;;20.85;3.80;;;22.60;94.90;;;;;;5047098;28;20029;-73
2023/12/06 11:31:44;;;;;;;20.77;4.07;;;22.50;95.10;;;;;;5053173;28;20030;-73
2023/12/06 11:34:15;;;;;;;21.70;4.40;;;22.40;95.10;;;;;;5051272;28;20049;-73
2023/12/06 11:36:42;;;;;;;18.67;3.55;;;22.20;95.60;;;;;;5055769;28;20044;-72
2023/12/06 11:39:17;;;;;;;20.20;3.63;;;22.10;95.80;;;;;;5055699;28;20162;-71
2023/12/06 11:41:57;;;;;;;23.42;4.00;;;22.10;95.80;;;;;;5053363;28;20040;-72
2023/12/06 11:44:29;;;;;;;22.45;4.70;;;22.20;96.00;;;;;;5057474;28;20040;-72
2023/12/06 11:46:57;;;;;;;31.00;6.53;;;22.30;95.70;;;;;;5049856;28;20031;-72
2023/12/06 11:49:28;;;;;;;18.38;4.65;;;22.30;95.60;;;;;;5054802;28;20425;-72
2023/12/06 11:52:10;;;;;;;23.85;5.85;;;22.40;95.50;;;;;;5052651;28;20037;-72
2023/12/06 11:54:45;;;;;;;21.42;7.45;;;22.50;95.40;;;;;;5049870;28;20039;-72
2023/12/06 11:57:16;;;;;;;23.92;7.65;;;22.50;95.20;;;;;;5053344;28;20090;-71
2023/12/06 11:59:44;;;;;;;28.00;8.88;;;22.50;95.20;;;;;;5051362;28;20511;-72
2023/12/06 12:02:13;;;;;;;29.75;10.27;;;22.30;95.20;;;;;;5056235;28;20486;-72
2023/12/06 12:04:44;;;;;;;34.50;11.70;;;22.20;95.60;;;;;;5049872;28;20017;-72
2023/12/06 12:07:12;;;;;;;26.50;10.75;;;22.10;95.70;;;;;;5057609;28;20021;-72
2023/12/06 12:09:41;;;;;;;31.50;11.05;;;22.10;95.60;;;;;;5053173;28;20032;-71
2023/12/06 12:12:08;;;;;;;34.20;11.50;;;22.00;95.80;;;;;;5054444;28;20481;-72
2023/12/06 12:14:37;;;;;;;26.58;11.20;;;22.00;95.90;;;;;;5055159;28;20393;-71
2023/12/06 12:17:07;;;;;;;30.35;9.75;;;21.90;96.20;;;;;;5053010;28;20108;-72
2023/12/06 12:19:35;;;;;;;28.70;9.68;;;21.80;96.20;;;;;;5049950;28;20639;-72
2023/12/06 12:22:03;;;;;;;29.83;6.85;;;21.70;96.80;;;;;;5044918;28;20567;-73
2023/12/06 12:24:31;;;;;;;25.52;7.32;;;21.60;96.70;;;;;;5046758;28;20159;-72
2023/12/06 12:26:58;;;;;;;25.25;7.05;;;21.50;96.90;;;;;;5052229;28;20035;-71
2023/12/06 12:29:25;;;;;;;27.70;5.90;;;21.50;96.90;;;;;;5045249;28;20025;-73
2023/12/06 12:31:53;;;;;;;28.50;4.82;;;21.40;96.90;;;;;;5050232;28;20033;-72
2023/12/06 12:34:21;;;;;;;20.85;4.45;;;21.40;97.10;;;;;;5040666;28;20025;-72
2023/12/06 12:36:49;;;;;;;21.48;4.10;;;21.40;97.30;;;;;;5044797;28;20033;-73
2023/12/06 12:39:16;;;;;;;31.42;4.50;;;21.30;97.20;;;;;;5044899;28;20033;-73
2023/12/06 12:41:44;;;;;;;28.15;4.32;;;21.30;97.40;;;;;;5045116;28;20045;-73
2023/12/06 12:44:11;;;;;;;24.40;4.07;;;21.20;97.40;;;;;;5044822;28;20132;-73